sensor_id;sensor_type;location;lat;lon;timestamp;pressure;altitude;pressure_sealevel;temperature;humidity
55066;BME280;40964;42.114;24.220;2023-04-08T00:01:07;97993.88;;;6.80;63.48
55066;BME280;40964;42.114;24.220;2023-04-08T00:03:32;97989.78;;;6.93;61.31
55066;BME280;40964;42.114;24.220;2023-04-08T00:05:57;97997.63;;;6.93;60.62
55066;BME280;40964;42.114;24.220;2023-04-08T00:08:25;97993.25;;;7.00;61.09
55066;BME280;40964;42.114;24.220;2023-04-08T00:10:50;97993.91;;;7.02;61.31
55066;BME280;40964;42.114;24.220;2023-04-08T00:13:16;97992.09;;;7.02;60.10
55066;BME280;40964;42.114;24.220;2023-04-08T00:15:41;97985.25;;;7.01;59.76
55066;BME280;40964;42.114;24.220;2023-04-08T00:18:07;97993.94;;;7.08;59.90
55066;BME280;40964;42.114;24.220;2023-04-08T00:20:32;97982.44;;;7.03;59.11
55066;BME280;40964;42.114;24.220;2023-04-08T00:22:58;97986.41;;;6.99;59.36
55066;BME280;40964;42.114;24.220;2023-04-08T00:25:23;97995.78;;;7.15;59.39
55066;BME280;40964;42.114;24.220;2023-04-08T00:27:49;97997.84;;;7.19;60.44
55066;BME280;40964;42.114;24.220;2023-04-08T00:30:14;98002.25;;;7.19;60.91
55066;BME280;40964;42.114;24.220;2023-04-08T00:32:40;98000.63;;;7.18;61.56
55066;BME280;40964;42.114;24.220;2023-04-08T00:35:06;97998.47;;;7.21;61.01
55066;BME280;40964;42.114;24.220;2023-04-08T00:37:31;98002.09;;;7.20;62.30
55066;BME280;40964;42.114;24.220;2023-04-08T00:39:57;98003.03;;;7.13;63.58
55066;BME280;40964;42.114;24.220;2023-04-08T00:42:22;98005.72;;;6.98;65.45
55066;BME280;40964;42.114;24.220;2023-04-08T00:44:48;97997.63;;;6.71;65.81
55066;BME280;40964;42.114;24.220;2023-04-08T00:47:14;98000.75;;;6.60;65.15
55066;BME280;40964;42.114;24.220;2023-04-08T00:49:41;97972.16;;;6.37;65.77
55066;BME280;40964;42.114;24.220;2023-04-08T00:52:06;98000.25;;;6.50;66.88
55066;BME280;40964;42.114;24.220;2023-04-08T00:54:32;98003.09;;;6.55;66.28
55066;BME280;40964;42.114;24.220;2023-04-08T00:56:58;98008.75;;;6.59;66.63
55066;BME280;40964;42.114;24.220;2023-04-08T00:59:28;98011.38;;;6.59;66.52
55066;BME280;40964;42.114;24.220;2023-04-08T01:07:45;98005.81;;;6.47;68.05
55066;BME280;40964;42.114;24.220;2023-04-08T01:09:54;98013.66;;;6.47;68.46
55066;BME280;40964;42.114;24.220;2023-04-08T01:12:24;98013.22;;;6.43;68.17
55066;BME280;40964;42.114;24.220;2023-04-08T01:15:00;98019.72;;;6.47;67.30
55066;BME280;40964;42.114;24.220;2023-04-08T01:17:27;98009.25;;;6.47;67.03
55066;BME280;40964;42.114;24.220;2023-04-08T01:19:55;98016.09;;;6.48;66.96
55066;BME280;40964;42.114;24.220;2023-04-08T01:24:54;98011.59;;;6.42;68.92
55066;BME280;40964;42.114;24.220;2023-04-08T01:27:22;98007.19;;;6.43;69.09
55066;BME280;40964;42.114;24.220;2023-04-08T01:29:48;98010.00;;;6.41;68.85
55066;BME280;40964;42.114;24.220;2023-04-08T01:32:14;98020.06;;;6.44;68.15
55066;BME280;40964;42.114;24.220;2023-04-08T01:34:41;98008.41;;;6.47;67.84
55066;BME280;40964;42.114;24.220;2023-04-08T01:37:08;98008.06;;;6.50;67.53
55066;BME280;40964;42.114;24.220;2023-04-08T01:39:35;98016.41;;;6.60;66.91
55066;BME280;40964;42.114;24.220;2023-04-08T01:42:01;98012.69;;;6.69;65.70
55066;BME280;40964;42.114;24.220;2023-04-08T01:44:28;98017.19;;;6.75;65.64
55066;BME280;40964;42.114;24.220;2023-04-08T01:46:55;98011.19;;;6.81;65.59
55066;BME280;40964;42.114;24.220;2023-04-08T01:49:22;98008.41;;;6.83;65.09
55066;BME280;40964;42.114;24.220;2023-04-08T01:51:50;98008.16;;;6.78;65.04
55066;BME280;40964;42.114;24.220;2023-04-08T01:54:16;98013.38;;;6.78;68.39
55066;BME280;40964;42.114;24.220;2023-04-08T01:56:43;98013.19;;;6.58;70.50
55066;BME280;40964;42.114;24.220;2023-04-08T01:59:12;98035.09;;;6.57;71.19
55066;BME280;40964;42.114;24.220;2023-04-08T02:01:40;98034.50;;;6.62;71.02
55066;BME280;40964;42.114;24.220;2023-04-08T02:04:07;98035.78;;;6.66;70.84
55066;BME280;40964;42.114;24.220;2023-04-08T02:06:32;98042.25;;;6.70;71.53
55066;BME280;40964;42.114;24.220;2023-04-08T02:08:59;98040.88;;;6.74;71.86
55066;BME280;40964;42.114;24.220;2023-04-08T02:11:26;98026.56;;;6.70;71.48
55066;BME280;40964;42.114;24.220;2023-04-08T02:13:52;98033.22;;;6.72;72.29
55066;BME280;40964;42.114;24.220;2023-04-08T02:16:22;98051.41;;;6.80;72.39
55066;BME280;40964;42.114;24.220;2023-04-08T02:18:55;98051.03;;;6.83;71.73
55066;BME280;40964;42.114;24.220;2023-04-08T02:21:27;98055.28;;;6.85;70.41
55066;BME280;40964;42.114;24.220;2023-04-08T02:23:57;98052.00;;;6.82;69.77
55066;BME280;40964;42.114;24.220;2023-04-08T02:26:25;98055.56;;;6.75;69.06
55066;BME280;40964;42.114;24.220;2023-04-08T02:28:52;98043.16;;;6.62;70.43
55066;BME280;40964;42.114;24.220;2023-04-08T02:31:19;98050.38;;;6.60;70.40
55066;BME280;40964;42.114;24.220;2023-04-08T02:33:46;98054.38;;;6.56;70.52
55066;BME280;40964;42.114;24.220;2023-04-08T02:36:13;98045.66;;;6.49;70.17
55066;BME280;40964;42.114;24.220;2023-04-08T02:38:39;98043.09;;;6.55;69.55
55066;BME280;40964;42.114;24.220;2023-04-08T02:41:05;98031.31;;;6.45;70.31
55066;BME280;40964;42.114;24.220;2023-04-08T02:43:30;98052.41;;;6.43;71.63
55066;BME280;40964;42.114;24.220;2023-04-08T02:46:00;98053.69;;;6.47;72.58
55066;BME280;40964;42.114;24.220;2023-04-08T02:48:28;98046.19;;;6.44;73.63
55066;BME280;40964;42.114;24.220;2023-04-08T02:50:53;98048.47;;;6.33;74.26
55066;BME280;40964;42.114;24.220;2023-04-08T02:53:19;98051.09;;;6.18;75.09
55066;BME280;40964;42.114;24.220;2023-04-08T02:55:44;98047.47;;;6.19;74.97
55066;BME280;40964;42.114;24.220;2023-04-08T02:58:10;98049.47;;;6.32;74.46
55066;BME280;40964;42.114;24.220;2023-04-08T03:00:35;98046.09;;;6.38;74.68
55066;BME280;40964;42.114;24.220;2023-04-08T03:03:04;98046.09;;;6.38;74.81
55066;BME280;40964;42.114;24.220;2023-04-08T03:05:30;98055.78;;;6.22;75.34
55066;BME280;40964;42.114;24.220;2023-04-08T03:07:56;98040.59;;;6.11;76.41
55066;BME280;40964;42.114;24.220;2023-04-08T03:10:22;98047.47;;;6.19;75.11
55066;BME280;40964;42.114;24.220;2023-04-08T03:12:47;98059.47;;;6.13;75.40
55066;BME280;40964;42.114;24.220;2023-04-08T03:15:13;98058.03;;;6.11;75.91
55066;BME280;40964;42.114;24.220;2023-04-08T03:17:38;98065.84;;;6.11;76.28
55066;BME280;40964;42.114;24.220;2023-04-08T03:20:04;98067.03;;;6.08;76.27
55066;BME280;40964;42.114;24.220;2023-04-08T03:22:30;98066.31;;;6.00;75.50
55066;BME280;40964;42.114;24.220;2023-04-08T03:24:55;98070.09;;;5.97;75.80
55066;BME280;40964;42.114;24.220;2023-04-08T03:27:21;98074.63;;;6.03;76.17
55066;BME280;40964;42.114;24.220;2023-04-08T03:29:46;98070.19;;;6.04;75.66
55066;BME280;40964;42.114;24.220;2023-04-08T03:32:12;98071.44;;;5.93;74.07
55066;BME280;40964;42.114;24.220;2023-04-08T03:34:38;98077.13;;;5.96;73.75
55066;BME280;40964;42.114;24.220;2023-04-08T03:37:03;98078.94;;;5.96;74.21
55066;BME280;40964;42.114;24.220;2023-04-08T03:39:28;98078.31;;;5.94;74.08
55066;BME280;40964;42.114;24.220;2023-04-08T03:41:55;98076.94;;;5.98;73.98
55066;BME280;40964;42.114;24.220;2023-04-08T03:44:20;98085.59;;;5.98;73.92
55066;BME280;40964;42.114;24.220;2023-04-08T03:46:45;98087.00;;;6.01;73.41
55066;BME280;40964;42.114;24.220;2023-04-08T03:49:11;98087.81;;;6.02;73.22
55066;BME280;40964;42.114;24.220;2023-04-08T03:51:36;98095.03;;;6.00;73.33
55066;BME280;40964;42.114;24.220;2023-04-08T03:54:02;98093.50;;;6.05;73.34
55066;BME280;40964;42.114;24.220;2023-04-08T03:56:27;98086.88;;;6.03;73.24
55066;BME280;40964;42.114;24.220;2023-04-08T03:58:53;98092.25;;;6.01;73.01
55066;BME280;40964;42.114;24.220;2023-04-08T04:01:18;98088.56;;;5.95;72.79
55066;BME280;40964;42.114;24.220;2023-04-08T04:03:44;98082.97;;;5.98;72.57
55066;BME280;40964;42.114;24.220;2023-04-08T04:06:09;98097.38;;;5.94;73.16
55066;BME280;40964;42.114;24.220;2023-04-08T04:08:35;98098.81;;;5.97;73.12
55066;BME280;40964;42.114;24.220;2023-04-08T04:11:01;98097.19;;;5.96;73.22
55066;BME280;40964;42.114;24.220;2023-04-08T04:13:26;98101.72;;;6.02;73.64
55066;BME280;40964;42.114;24.220;2023-04-08T04:15:51;98098.25;;;6.02;73.71
55066;BME280;40964;42.114;24.220;2023-04-08T04:18:17;98100.44;;;5.98;73.63
55066;BME280;40964;42.114;24.220;2023-04-08T04:20:42;98097.81;;;5.98;74.42
55066;BME280;40964;42.114;24.220;2023-04-08T04:23:08;98093.78;;;5.95;74.98
55066;BME280;40964;42.114;24.220;2023-04-08T04:25:34;98111.41;;;6.08;75.54
55066;BME280;40964;42.114;24.220;2023-04-08T04:27:59;98112.50;;;6.14;75.68
55066;BME280;40964;42.114;24.220;2023-04-08T04:30:26;98113.75;;;6.18;74.79
55066;BME280;40964;42.114;24.220;2023-04-08T04:32:52;98117.19;;;6.18;75.01
55066;BME280;40964;42.114;24.220;2023-04-08T04:35:17;98106.22;;;6.23;74.59
55066;BME280;40964;42.114;24.220;2023-04-08T04:37:42;98112.75;;;6.19;74.24
55066;BME280;40964;42.114;24.220;2023-04-08T04:40:08;98114.03;;;6.23;73.87
55066;BME280;40964;42.114;24.220;2023-04-08T04:42:33;98117.72;;;6.29;73.80
55066;BME280;40964;42.114;24.220;2023-04-08T04:44:59;98109.53;;;6.32;73.98
55066;BME280;40964;42.114;24.220;2023-04-08T04:47:25;98118.81;;;6.34;73.84
55066;BME280;40964;42.114;24.220;2023-04-08T04:49:51;98121.84;;;6.38;73.56
55066;BME280;40964;42.114;24.220;2023-04-08T04:52:16;98127.34;;;6.43;73.59
55066;BME280;40964;42.114;24.220;2023-04-08T04:54:42;98114.19;;;6.36;72.79
55066;BME280;40964;42.114;24.220;2023-04-08T04:57:07;98127.44;;;6.49;73.57
55066;BME280;40964;42.114;24.220;2023-04-08T04:59:33;98131.13;;;6.55;72.87
55066;BME280;40964;42.114;24.220;2023-04-08T05:01:58;98133.19;;;6.60;72.55
55066;BME280;40964;42.114;24.220;2023-04-08T05:04:24;98130.16;;;6.56;71.95
55066;BME280;40964;42.114;24.220;2023-04-08T05:06:50;98135.63;;;6.46;72.92
55066;BME280;40964;42.114;24.220;2023-04-08T05:09:15;98129.78;;;6.44;74.55
55066;BME280;40964;42.114;24.220;2023-04-08T05:11:40;98129.06;;;6.50;74.98
55066;BME280;40964;42.114;24.220;2023-04-08T05:14:06;98139.06;;;6.47;75.64
55066;BME280;40964;42.114;24.220;2023-04-08T05:16:34;98133.66;;;6.48;74.97
55066;BME280;40964;42.114;24.220;2023-04-08T05:19:00;98138.00;;;6.56;74.01
55066;BME280;40964;42.114;24.220;2023-04-08T05:21:25;98137.88;;;6.64;74.44
55066;BME280;40964;42.114;24.220;2023-04-08T05:23:52;98141.19;;;6.73;74.42
55066;BME280;40964;42.114;24.220;2023-04-08T05:26:21;98141.88;;;6.81;74.17
55066;BME280;40964;42.114;24.220;2023-04-08T05:28:47;98146.97;;;6.83;72.91
55066;BME280;40964;42.114;24.220;2023-04-08T05:31:19;98143.78;;;6.88;72.67
55066;BME280;40964;42.114;24.220;2023-04-08T05:33:45;98151.28;;;6.76;71.80
55066;BME280;40964;42.114;24.220;2023-04-08T05:36:11;98149.91;;;6.80;70.51
55066;BME280;40964;42.114;24.220;2023-04-08T05:38:37;98146.72;;;6.99;71.34
55066;BME280;40964;42.114;24.220;2023-04-08T05:41:03;98143.78;;;7.09;69.71
55066;BME280;40964;42.114;24.220;2023-04-08T05:43:28;98149.19;;;7.22;69.09
55066;BME280;40964;42.114;24.220;2023-04-08T05:45:54;98151.28;;;7.33;69.06
55066;BME280;40964;42.114;24.220;2023-04-08T05:48:19;98148.75;;;7.40;69.04
55066;BME280;40964;42.114;24.220;2023-04-08T05:50:45;98148.38;;;7.43;68.21
55066;BME280;40964;42.114;24.220;2023-04-08T05:53:13;98150.66;;;7.53;67.97
55066;BME280;40964;42.114;24.220;2023-04-08T05:55:39;98147.44;;;7.51;67.12
55066;BME280;40964;42.114;24.220;2023-04-08T05:58:05;98155.84;;;7.67;67.41
55066;BME280;40964;42.114;24.220;2023-04-08T06:00:30;98155.50;;;7.77;67.36
55066;BME280;40964;42.114;24.220;2023-04-08T06:02:56;98145.03;;;7.77;68.37
55066;BME280;40964;42.114;24.220;2023-04-08T06:05:21;98157.00;;;7.86;67.90
55066;BME280;40964;42.114;24.220;2023-04-08T06:07:47;98149.31;;;7.85;68.40
55066;BME280;40964;42.114;24.220;2023-04-08T06:10:12;98152.69;;;7.79;68.69
55066;BME280;40964;42.114;24.220;2023-04-08T06:12:38;98147.41;;;7.72;67.78
55066;BME280;40964;42.114;24.220;2023-04-08T06:15:05;98145.66;;;7.79;67.36
55066;BME280;40964;42.114;24.220;2023-04-08T06:17:31;98147.84;;;8.04;67.84
55066;BME280;40964;42.114;24.220;2023-04-08T06:19:56;98145.81;;;8.34;66.86
55066;BME280;40964;42.114;24.220;2023-04-08T06:22:21;98141.88;;;8.16;65.86
55066;BME280;40964;42.114;24.220;2023-04-08T06:24:47;98134.47;;;8.26;67.67
55066;BME280;40964;42.114;24.220;2023-04-08T06:27:13;98141.03;;;8.09;66.12
55066;BME280;40964;42.114;24.220;2023-04-08T06:29:38;98137.00;;;8.41;66.56
55066;BME280;40964;42.114;24.220;2023-04-08T06:32:05;98131.03;;;8.54;64.90
55066;BME280;40964;42.114;24.220;2023-04-08T06:37:05;98130.53;;;8.72;64.80
55066;BME280;40964;42.114;24.220;2023-04-08T06:39:30;98133.78;;;8.87;66.21
55066;BME280;40964;42.114;24.220;2023-04-08T06:41:55;98131.97;;;8.81;65.41
55066;BME280;40964;42.114;24.220;2023-04-08T06:44:22;98139.47;;;8.91;65.67
55066;BME280;40964;42.114;24.220;2023-04-08T06:46:48;98134.63;;;8.94;68.59
55066;BME280;40964;42.114;24.220;2023-04-08T06:49:13;98128.56;;;8.94;68.75
55066;BME280;40964;42.114;24.220;2023-04-08T06:51:38;98131.91;;;8.68;69.62
55066;BME280;40964;42.114;24.220;2023-04-08T06:54:04;98146.69;;;8.82;70.26
55066;BME280;40964;42.114;24.220;2023-04-08T06:56:30;98133.81;;;9.07;70.02
55066;BME280;40964;42.114;24.220;2023-04-08T06:58:55;98139.50;;;9.10;68.06
55066;BME280;40964;42.114;24.220;2023-04-08T07:01:20;98136.72;;;9.32;69.12
55066;BME280;40964;42.114;24.220;2023-04-08T07:03:46;98122.00;;;9.44;67.37
55066;BME280;40964;42.114;24.220;2023-04-08T07:06:11;98139.78;;;9.68;68.43
55066;BME280;40964;42.114;24.220;2023-04-08T07:08:37;98126.00;;;9.33;67.43
55066;BME280;40964;42.114;24.220;2023-04-08T07:11:03;98134.31;;;9.50;68.39
55066;BME280;40964;42.114;24.220;2023-04-08T07:13:29;98129.66;;;9.59;66.27
55066;BME280;40964;42.114;24.220;2023-04-08T07:15:55;98135.13;;;9.37;69.51
55066;BME280;40964;42.114;24.220;2023-04-08T07:18:20;98134.72;;;9.47;69.33
55066;BME280;40964;42.114;24.220;2023-04-08T07:20:52;98146.41;;;9.38;69.82
55066;BME280;40964;42.114;24.220;2023-04-08T07:23:20;98140.38;;;9.37;68.76
55066;BME280;40964;42.114;24.220;2023-04-08T07:25:46;98146.66;;;9.56;69.26
55066;BME280;40964;42.114;24.220;2023-04-08T07:28:12;98144.22;;;9.68;66.62
55066;BME280;40964;42.114;24.220;2023-04-08T07:30:38;98139.56;;;9.70;66.86
55066;BME280;40964;42.114;24.220;2023-04-08T07:33:03;98141.00;;;9.92;65.51
55066;BME280;40964;42.114;24.220;2023-04-08T07:35:29;98143.81;;;9.98;63.67
55066;BME280;40964;42.114;24.220;2023-04-08T07:37:56;98152.91;;;10.02;63.41
55066;BME280;40964;42.114;24.220;2023-04-08T07:40:22;98153.69;;;10.29;62.45
55066;BME280;40964;42.114;24.220;2023-04-08T07:42:47;98157.31;;;10.14;61.92
55066;BME280;40964;42.114;24.220;2023-04-08T07:45:13;98158.97;;;10.09;62.01
55066;BME280;40964;42.114;24.220;2023-04-08T07:47:39;98157.94;;;10.43;62.82
55066;BME280;40964;42.114;24.220;2023-04-08T07:50:05;98158.13;;;10.15;61.99
55066;BME280;40964;42.114;24.220;2023-04-08T07:52:32;98159.94;;;10.21;61.55
55066;BME280;40964;42.114;24.220;2023-04-08T07:54:57;98156.50;;;10.47;59.93
55066;BME280;40964;42.114;24.220;2023-04-08T07:57:23;98165.19;;;10.41;60.87
55066;BME280;40964;42.114;24.220;2023-04-08T07:59:48;98157.50;;;10.46;60.60
55066;BME280;40964;42.114;24.220;2023-04-08T08:02:14;98162.28;;;10.69;59.74
55066;BME280;40964;42.114;24.220;2023-04-08T08:04:39;98167.16;;;10.59;59.88
55066;BME280;40964;42.114;24.220;2023-04-08T08:07:05;98164.91;;;10.69;58.93
55066;BME280;40964;42.114;24.220;2023-04-08T08:09:30;98157.69;;;10.51;58.51
55066;BME280;40964;42.114;24.220;2023-04-08T08:11:56;98158.50;;;10.51;59.01
55066;BME280;40964;42.114;24.220;2023-04-08T08:14:21;98156.03;;;10.63;59.40
55066;BME280;40964;42.114;24.220;2023-04-08T08:16:46;98167.25;;;10.97;59.42
55066;BME280;40964;42.114;24.220;2023-04-08T08:19:13;98156.25;;;11.45;57.14
55066;BME280;40964;42.114;24.220;2023-04-08T08:21:39;98165.78;;;11.39;58.67
55066;BME280;40964;42.114;24.220;2023-04-08T08:24:04;98164.91;;;11.52;58.10
55066;BME280;40964;42.114;24.220;2023-04-08T08:26:30;98163.25;;;11.57;58.97
55066;BME280;40964;42.114;24.220;2023-04-08T08:28:56;98155.25;;;11.39;56.51
55066;BME280;40964;42.114;24.220;2023-04-08T08:31:21;98164.47;;;11.55;57.01
55066;BME280;40964;42.114;24.220;2023-04-08T08:33:47;98160.94;;;11.43;58.58
55066;BME280;40964;42.114;24.220;2023-04-08T08:36:12;98167.13;;;11.55;56.83
55066;BME280;40964;42.114;24.220;2023-04-08T08:38:37;98172.13;;;11.63;54.83
55066;BME280;40964;42.114;24.220;2023-04-08T08:41:03;98165.34;;;11.74;54.14
55066;BME280;40964;42.114;24.220;2023-04-08T08:43:29;98164.47;;;11.55;54.14
55066;BME280;40964;42.114;24.220;2023-04-08T08:45:58;98165.22;;;11.69;55.82
55066;BME280;40964;42.114;24.220;2023-04-08T08:48:23;98168.25;;;11.65;57.25
55066;BME280;40964;42.114;24.220;2023-04-08T08:50:49;98168.91;;;11.61;56.70
55066;BME280;40964;42.114;24.220;2023-04-08T08:53:15;98166.84;;;11.63;56.80
55066;BME280;40964;42.114;24.220;2023-04-08T08:55:40;98167.16;;;11.80;56.23
55066;BME280;40964;42.114;24.220;2023-04-08T08:58:06;98167.31;;;12.10;55.47
55066;BME280;40964;42.114;24.220;2023-04-08T09:00:37;98168.28;;;11.90;59.57
55066;BME280;40964;42.114;24.220;2023-04-08T09:03:22;98165.84;;;11.64;58.98
55066;BME280;40964;42.114;24.220;2023-04-08T09:05:50;98157.59;;;11.85;57.95
55066;BME280;40964;42.114;24.220;2023-04-08T09:10:55;98153.16;;;11.79;59.50
55066;BME280;40964;42.114;24.220;2023-04-08T09:13:22;98156.00;;;11.78;58.33
55066;BME280;40964;42.114;24.220;2023-04-08T09:16:01;98153.09;;;12.11;57.79
55066;BME280;40964;42.114;24.220;2023-04-08T09:18:27;98154.09;;;12.35;57.08
55066;BME280;40964;42.114;24.220;2023-04-08T09:20:53;98154.75;;;12.48;55.58
55066;BME280;40964;42.114;24.220;2023-04-08T09:23:18;98151.31;;;12.66;54.93
55066;BME280;40964;42.114;24.220;2023-04-08T09:25:44;98155.66;;;12.61;57.08
55066;BME280;40964;42.114;24.220;2023-04-08T09:28:19;98158.69;;;12.76;55.60
55066;BME280;40964;42.114;24.220;2023-04-08T09:30:45;98151.22;;;12.91;53.96
55066;BME280;40964;42.114;24.220;2023-04-08T09:33:11;98148.16;;;12.94;55.04
55066;BME280;40964;42.114;24.220;2023-04-08T09:35:36;98152.84;;;13.41;54.88
55066;BME280;40964;42.114;24.220;2023-04-08T09:38:02;98142.09;;;13.24;51.34
55066;BME280;40964;42.114;24.220;2023-04-08T09:40:32;98147.66;;;13.16;52.42
55066;BME280;40964;42.114;24.220;2023-04-08T09:43:03;98146.56;;;13.23;51.89
55066;BME280;40964;42.114;24.220;2023-04-08T09:45:32;98140.19;;;13.13;54.02
55066;BME280;40964;42.114;24.220;2023-04-08T09:48:21;98141.22;;;13.42;53.01
55066;BME280;40964;42.114;24.220;2023-04-08T09:50:49;98141.78;;;13.32;52.13
55066;BME280;40964;42.114;24.220;2023-04-08T09:53:27;98141.31;;;13.77;49.50
55066;BME280;40964;42.114;24.220;2023-04-08T09:55:55;98140.72;;;14.10;51.39
55066;BME280;40964;42.114;24.220;2023-04-08T09:58:27;98137.19;;;14.16;49.76
55066;BME280;40964;42.114;24.220;2023-04-08T10:00:53;98141.91;;;13.37;50.09
55066;BME280;40964;42.114;24.220;2023-04-08T10:03:32;98145.41;;;13.49;51.73
55066;BME280;40964;42.114;24.220;2023-04-08T10:06:00;98145.66;;;13.83;49.91
55066;BME280;40964;42.114;24.220;2023-04-08T10:08:27;98131.53;;;14.01;50.09
55066;BME280;40964;42.114;24.220;2023-04-08T10:10:55;98122.34;;;14.15;49.90
55066;BME280;40964;42.114;24.220;2023-04-08T10:13:21;98134.66;;;14.56;50.76
55066;BME280;40964;42.114;24.220;2023-04-08T10:15:47;98129.78;;;14.41;51.27
55066;BME280;40964;42.114;24.220;2023-04-08T10:23:08;98122.81;;;13.35;51.81
55066;BME280;40964;42.114;24.220;2023-04-08T10:25:39;98117.44;;;13.12;53.23
55066;BME280;40964;42.114;24.220;2023-04-08T10:28:26;98113.03;;;13.24;53.74
55066;BME280;40964;42.114;24.220;2023-04-08T10:30:57;98116.44;;;13.13;54.42
55066;BME280;40964;42.114;24.220;2023-04-08T10:33:33;98118.78;;;13.86;50.43
55066;BME280;40964;42.114;24.220;2023-04-08T10:36:10;98111.66;;;13.86;51.77
55066;BME280;40964;42.114;24.220;2023-04-08T10:38:39;98110.81;;;13.74;51.95
55066;BME280;40964;42.114;24.220;2023-04-08T10:41:08;98104.63;;;13.69;55.88
55066;BME280;40964;42.114;24.220;2023-04-08T10:43:35;98101.63;;;14.00;50.53
55066;BME280;40964;42.114;24.220;2023-04-08T10:46:01;98093.44;;;14.37;52.87
55066;BME280;40964;42.114;24.220;2023-04-08T10:48:26;98101.28;;;13.61;52.99
55066;BME280;40964;42.114;24.220;2023-04-08T10:51:02;98108.84;;;13.46;55.67
55066;BME280;40964;42.114;24.220;2023-04-08T10:53:32;98095.94;;;13.26;53.40
55066;BME280;40964;42.114;24.220;2023-04-08T10:56:13;98100.56;;;13.31;54.03
55066;BME280;40964;42.114;24.220;2023-04-08T11:01:14;98095.72;;;13.10;56.26
55066;BME280;40964;42.114;24.220;2023-04-08T11:03:41;98094.22;;;13.02;55.83
55066;BME280;40964;42.114;24.220;2023-04-08T11:06:06;98095.00;;;13.02;57.66
55066;BME280;40964;42.114;24.220;2023-04-08T11:08:32;98094.91;;;12.97;55.35
55066;BME280;40964;42.114;24.220;2023-04-08T11:11:00;98087.38;;;13.13;56.79
55066;BME280;40964;42.114;24.220;2023-04-08T11:13:30;98093.22;;;13.56;56.17
55066;BME280;40964;42.114;24.220;2023-04-08T11:15:58;98093.31;;;13.38;55.96
55066;BME280;40964;42.114;24.220;2023-04-08T11:18:24;98091.84;;;13.42;54.81
55066;BME280;40964;42.114;24.220;2023-04-08T11:20:51;98087.91;;;13.33;56.75
55066;BME280;40964;42.114;24.220;2023-04-08T11:23:17;98099.53;;;13.44;55.99
55066;BME280;40964;42.114;24.220;2023-04-08T11:25:44;98092.31;;;13.62;55.03
55066;BME280;40964;42.114;24.220;2023-04-08T11:28:10;98088.91;;;13.85;54.84
55066;BME280;40964;42.114;24.220;2023-04-08T11:30:37;98092.56;;;13.73;54.96
55066;BME280;40964;42.114;24.220;2023-04-08T11:33:03;98083.03;;;13.72;54.10
55066;BME280;40964;42.114;24.220;2023-04-08T11:35:29;98078.78;;;13.59;54.13
55066;BME280;40964;42.114;24.220;2023-04-08T11:37:56;98089.03;;;13.25;53.93
55066;BME280;40964;42.114;24.220;2023-04-08T11:40:22;98080.88;;;13.27;55.90
55066;BME280;40964;42.114;24.220;2023-04-08T11:42:49;98083.34;;;13.52;54.38
55066;BME280;40964;42.114;24.220;2023-04-08T11:45:17;98081.06;;;13.79;54.75
55066;BME280;40964;42.114;24.220;2023-04-08T11:47:44;98057.63;;;13.94;53.28
55066;BME280;40964;42.114;24.220;2023-04-08T11:50:11;98064.00;;;14.45;52.34
55066;BME280;40964;42.114;24.220;2023-04-08T11:52:50;98070.41;;;14.61;51.45
55066;BME280;40964;42.114;24.220;2023-04-08T11:55:27;98057.78;;;14.80;50.50
55066;BME280;40964;42.114;24.220;2023-04-08T11:57:54;98060.88;;;14.36;51.88
55066;BME280;40964;42.114;24.220;2023-04-08T12:00:23;98059.00;;;13.85;53.76
55066;BME280;40964;42.114;24.220;2023-04-08T12:02:48;98054.50;;;13.74;54.27
55066;BME280;40964;42.114;24.220;2023-04-08T12:05:14;98054.97;;;13.82;55.58
55066;BME280;40964;42.114;24.220;2023-04-08T12:07:40;98056.56;;;13.83;55.12
55066;BME280;40964;42.114;24.220;2023-04-08T12:10:07;98045.19;;;13.83;54.08
55066;BME280;40964;42.114;24.220;2023-04-08T12:12:32;98043.00;;;13.56;54.33
55066;BME280;40964;42.114;24.220;2023-04-08T12:14:58;98047.41;;;13.51;54.99
55066;BME280;40964;42.114;24.220;2023-04-08T12:17:23;98048.44;;;13.61;54.85
55066;BME280;40964;42.114;24.220;2023-04-08T12:19:49;98038.09;;;13.48;53.67
55066;BME280;40964;42.114;24.220;2023-04-08T12:22:14;98031.66;;;13.68;53.63
55066;BME280;40964;42.114;24.220;2023-04-08T12:24:40;98035.19;;;14.08;54.28
55066;BME280;40964;42.114;24.220;2023-04-08T12:27:06;98029.88;;;14.20;53.43
55066;BME280;40964;42.114;24.220;2023-04-08T12:29:31;98023.66;;;14.14;54.72
55066;BME280;40964;42.114;24.220;2023-04-08T12:31:57;98023.31;;;14.23;52.95
55066;BME280;40964;42.114;24.220;2023-04-08T12:39:46;98020.19;;;14.26;53.90
55066;BME280;40964;42.114;24.220;2023-04-08T12:42:12;98018.50;;;14.60;54.48
55066;BME280;40964;42.114;24.220;2023-04-08T12:44:37;98009.38;;;14.67;51.99
55066;BME280;40964;42.114;24.220;2023-04-08T12:47:03;98011.41;;;14.37;52.00
55066;BME280;40964;42.114;24.220;2023-04-08T12:49:28;98007.59;;;14.56;53.23
55066;BME280;40964;42.114;24.220;2023-04-08T12:51:54;97999.56;;;14.51;51.30
55066;BME280;40964;42.114;24.220;2023-04-08T12:54:19;98001.06;;;14.75;51.01
55066;BME280;40964;42.114;24.220;2023-04-08T12:56:45;98000.44;;;14.85;51.01
55066;BME280;40964;42.114;24.220;2023-04-08T12:59:13;98000.47;;;14.73;51.17
55066;BME280;40964;42.114;24.220;2023-04-08T13:01:38;97995.03;;;14.80;51.63
55066;BME280;40964;42.114;24.220;2023-04-08T13:04:04;97990.84;;;14.39;51.63
55066;BME280;40964;42.114;24.220;2023-04-08T13:06:29;97990.28;;;14.25;52.78
55066;BME280;40964;42.114;24.220;2023-04-08T13:08:56;97983.69;;;14.11;52.56
55066;BME280;40964;42.114;24.220;2023-04-08T13:11:21;97986.00;;;14.36;53.70
55066;BME280;40964;42.114;24.220;2023-04-08T13:13:47;97981.06;;;14.28;53.21
55066;BME280;40964;42.114;24.220;2023-04-08T13:16:13;97968.94;;;14.43;52.24
55066;BME280;40964;42.114;24.220;2023-04-08T13:18:39;97983.06;;;14.20;52.28